Herriman, Utah
Current Conditions -  °F | °C
As of 9:53 PM on Friday 21 Nov 2014 (Local Time) from KSLC Reporting Station
Scattered Clouds Scattered Clouds  
Wind Chill: 28°   Ceiling: Unl
Heat Index: 35°   Visibility: 10mi
Dew Point: 26°   Wind: 9mph
Humidity: 70%   Direction: 140°SE
Pressure: 29.98"   Gusts: NA
Location:  40.52°N, 112.03°W
Report Text: KSLC 220453Z 14008KT 10SM FEW110 FEW150 SCT200 02/M03 A2998 RMK AO2 SLP147 T00171033
Loading
Personal Weather Stations






























Interactive Weather Map New forecast layout! Learn more

10-Day Weather Forecast

Advertisements
Track Severe Weather on mobile